createdAt,value
2019-01-23T00:00:45.037Z,979.54
2019-01-23T00:01:45.008Z,979.54
2019-01-23T00:02:44.976Z,979.53
2019-01-23T00:03:44.953Z,979.49
2019-01-23T00:04:44.928Z,979.50
2019-01-23T00:05:44.903Z,979.52
2019-01-23T00:06:44.872Z,979.46
2019-01-23T00:07:44.850Z,979.47
2019-01-23T00:08:44.817Z,979.43
2019-01-23T00:09:44.798Z,979.42
2019-01-23T00:10:44.766Z,979.41
2019-01-23T00:11:44.740Z,979.43
2019-01-23T00:12:44.711Z,979.40
2019-01-23T00:13:44.693Z,979.41
2019-01-23T00:14:44.668Z,979.41
2019-01-23T00:15:44.632Z,979.41
2019-01-23T00:16:44.611Z,979.40
2019-01-23T00:17:44.588Z,979.34
2019-01-23T00:18:44.559Z,979.39
2019-01-23T00:19:44.530Z,979.39
2019-01-23T00:20:44.507Z,979.37
2019-01-23T00:21:44.478Z,979.37
2019-01-23T00:22:44.449Z,979.39
2019-01-23T00:23:44.424Z,979.39
2019-01-23T00:24:44.398Z,979.41
2019-01-23T00:25:44.376Z,979.35
2019-01-23T00:26:44.344Z,979.38
2019-01-23T00:27:44.318Z,979.37
2019-01-23T00:28:44.296Z,979.36
2019-01-23T00:29:44.265Z,979.35
2019-01-23T00:30:44.239Z,979.34
2019-01-23T00:31:44.221Z,979.33
2019-01-23T00:32:44.197Z,979.34
2019-01-23T00:33:44.159Z,979.33
2019-01-23T00:34:44.133Z,979.32
2019-01-23T00:35:44.109Z,979.30
2019-01-23T00:36:44.083Z,979.28
2019-01-23T00:37:44.057Z,979.32
2019-01-23T00:38:44.038Z,979.30
2019-01-23T00:39:44.008Z,979.27
2019-01-23T00:40:43.978Z,979.28
2019-01-23T00:41:43.958Z,979.25
2019-01-23T00:42:43.925Z,979.24
2019-01-23T00:43:43.906Z,979.24
2019-01-23T00:44:43.877Z,979.23
2019-01-23T00:45:43.844Z,979.27
2019-01-23T00:46:43.828Z,979.24
2019-01-23T00:47:43.793Z,979.28
2019-01-23T00:48:43.774Z,979.24
2019-01-23T00:49:43.742Z,979.26
2019-01-23T00:50:43.717Z,979.24
2019-01-23T00:51:43.691Z,979.22
2019-01-23T00:52:43.662Z,979.20
2019-01-23T00:53:43.636Z,979.19
2019-01-23T00:54:43.611Z,979.18
2019-01-23T00:55:43.591Z,979.18
2019-01-23T00:56:43.572Z,979.17
2019-01-23T00:57:43.537Z,979.18
2019-01-23T00:58:49.135Z,979.16
2019-01-23T00:59:43.486Z,979.19
2019-01-23T01:00:43.454Z,979.13
2019-01-23T01:01:43.428Z,979.15
2019-01-23T01:02:43.403Z,979.12
2019-01-23T01:03:44.343Z,979.11
2019-01-23T01:04:43.354Z,979.12
2019-01-23T01:05:43.326Z,979.08
2019-01-23T01:06:43.303Z,979.07
2019-01-23T01:07:43.276Z,979.03
2019-01-23T01:08:43.257Z,979.04
2019-01-23T01:09:43.218Z,979.00
2019-01-23T01:10:43.201Z,979.01
2019-01-23T01:11:43.167Z,979.04
2019-01-23T01:12:43.142Z,979.01
2019-01-23T01:13:43.116Z,978.96
2019-01-23T01:14:43.094Z,978.97
2019-01-23T01:15:43.062Z,978.93
2019-01-23T01:16:43.037Z,978.93
2019-01-23T01:17:43.008Z,978.94
2019-01-23T01:18:42.988Z,978.91
2019-01-23T01:19:42.957Z,978.91
2019-01-23T01:20:42.933Z,978.87
2019-01-23T01:21:42.905Z,978.86
2019-01-23T01:22:42.877Z,978.84
2019-01-23T01:23:42.853Z,978.82
2019-01-23T01:24:42.826Z,978.83
2019-01-23T01:25:42.807Z,978.83
2019-01-23T01:26:42.775Z,978.83
2019-01-23T01:27:42.749Z,978.84
2019-01-23T01:28:42.727Z,978.85
2019-01-23T01:29:42.695Z,978.86
2019-01-23T01:30:42.669Z,978.81
2019-01-23T01:31:42.644Z,978.80
2019-01-23T01:32:42.618Z,978.80
2019-01-23T01:33:42.592Z,978.77
2019-01-23T01:34:42.564Z,978.81
2019-01-23T01:35:42.544Z,978.75
2019-01-23T01:36:42.509Z,978.74
2019-01-23T01:37:42.484Z,978.75
2019-01-23T01:38:42.459Z,978.76
2019-01-23T01:39:42.434Z,978.71
2019-01-23T01:40:42.408Z,978.75
2019-01-23T01:41:42.379Z,978.72
2019-01-23T01:42:42.354Z,978.70
2019-01-23T01:43:42.328Z,978.70
2019-01-23T01:44:42.309Z,978.69
2019-01-23T01:45:42.274Z,978.69
2019-01-23T01:46:42.255Z,978.70
2019-01-23T01:47:42.227Z,978.72
2019-01-23T01:48:42.198Z,978.67
2019-01-23T01:49:42.173Z,978.70
2019-01-23T01:50:42.143Z,978.69
2019-01-23T01:51:42.124Z,978.70
2019-01-23T01:52:42.099Z,978.67
2019-01-23T01:53:42.066Z,978.66
2019-01-23T01:54:42.054Z,978.67
2019-01-23T01:55:42.015Z,978.66
2019-01-23T01:56:41.989Z,978.69
2019-01-23T01:57:41.964Z,978.69
2019-01-23T01:58:41.944Z,978.69
2019-01-23T01:59:41.915Z,978.65
2019-01-23T02:00:41.883Z,978.64
2019-01-23T02:01:41.859Z,978.63
2019-01-23T02:02:41.837Z,978.66
2019-01-23T02:03:41.805Z,978.59
2019-01-23T02:04:41.782Z,978.63
2019-01-23T02:05:41.754Z,978.55
2019-01-23T02:06:41.731Z,978.56
2019-01-23T02:07:41.702Z,978.52
2019-01-23T02:08:41.679Z,978.49
2019-01-23T02:09:45.428Z,978.47
2019-01-23T02:10:41.631Z,978.50
2019-01-23T02:11:41.605Z,978.43
2019-01-23T02:12:41.582Z,978.42
2019-01-23T02:13:41.551Z,978.43
2019-01-23T02:14:41.519Z,978.42
2019-01-23T02:15:41.494Z,978.41
2019-01-23T02:16:41.470Z,978.40
2019-01-23T02:17:41.448Z,978.37
2019-01-23T02:18:41.422Z,978.38
2019-01-23T02:19:41.391Z,978.33
2019-01-23T02:20:41.368Z,978.34
2019-01-23T02:21:41.337Z,978.34
2019-01-23T02:22:41.317Z,978.33
2019-01-23T02:23:41.291Z,978.30
2019-01-23T02:24:41.265Z,978.34
2019-01-23T02:25:41.240Z,978.35
2019-01-23T02:26:41.214Z,978.33
2019-01-23T02:27:41.178Z,978.31
2019-01-23T02:28:41.157Z,978.25
2019-01-23T02:29:41.134Z,978.26
2019-01-23T02:30:41.103Z,978.27
2019-01-23T02:31:41.076Z,978.19
2019-01-23T02:32:41.051Z,978.20
2019-01-23T02:33:41.033Z,978.21
2019-01-23T02:34:41.005Z,978.20
2019-01-23T02:35:40.970Z,978.19
2019-01-23T02:36:40.946Z,978.19
2019-01-23T02:37:40.928Z,978.19
2019-01-23T02:38:40.897Z,978.13
2019-01-23T02:39:40.867Z,978.12
2019-01-23T02:40:40.842Z,978.11
2019-01-23T02:41:40.817Z,978.08
2019-01-23T02:42:40.790Z,978.06
2019-01-23T02:43:40.765Z,978.08
2019-01-23T02:44:40.739Z,978.07
2019-01-23T02:45:40.711Z,978.04
2019-01-23T02:46:40.703Z,978.03
2019-01-23T02:47:40.687Z,978.00
2019-01-23T02:48:40.633Z,977.98
2019-01-23T02:49:40.636Z,977.98
2019-01-23T02:50:40.589Z,977.98
2019-01-23T02:51:40.557Z,977.96
2019-01-23T02:52:40.534Z,977.94
2019-01-23T02:53:40.513Z,977.91
2019-01-23T02:54:40.477Z,977.89
2019-01-23T02:55:40.459Z,977.88
2019-01-23T02:56:40.425Z,977.86
2019-01-23T02:57:40.407Z,977.86
2019-01-23T02:58:40.372Z,977.87
2019-01-23T02:59:40.349Z,977.83
2019-01-23T03:00:40.327Z,977.82
2019-01-23T03:01:40.295Z,977.82
2019-01-23T03:02:40.270Z,977.79
2019-01-23T03:03:40.244Z,977.84
2019-01-23T03:04:40.219Z,977.78
2019-01-23T03:05:40.190Z,977.80
2019-01-23T03:06:40.164Z,977.76
2019-01-23T03:07:40.138Z,977.77
2019-01-23T03:08:40.116Z,977.76
2019-01-23T03:09:40.091Z,977.72
2019-01-23T03:10:40.060Z,977.70
2019-01-23T03:11:40.035Z,977.71
2019-01-23T03:12:40.015Z,977.72
2019-01-23T03:13:39.983Z,977.67
2019-01-23T03:14:39.964Z,977.66
2019-01-23T03:15:39.932Z,977.68
2019-01-23T03:16:39.918Z,977.65
2019-01-23T03:17:39.880Z,977.66
2019-01-23T03:18:39.862Z,977.63
2019-01-23T03:19:39.828Z,977.63
2019-01-23T03:20:39.805Z,977.59
2019-01-23T03:21:39.779Z,977.62
2019-01-23T03:22:39.750Z,977.56
2019-01-23T03:23:39.725Z,977.57
2019-01-23T03:24:39.704Z,977.52
2019-01-23T03:25:39.672Z,977.51
2019-01-23T03:26:39.647Z,977.51
2019-01-23T03:27:39.618Z,977.51
2019-01-23T03:28:39.597Z,977.47
2019-01-23T03:29:39.577Z,977.43
2019-01-23T03:30:40.399Z,977.44
2019-01-23T03:31:39.517Z,977.40
2019-01-23T03:32:39.494Z,977.41
2019-01-23T03:33:39.463Z,977.41
2019-01-23T03:34:39.435Z,977.38
2019-01-23T03:35:39.411Z,977.39
2019-01-23T03:36:39.383Z,977.32
2019-01-23T03:37:39.368Z,977.37
2019-01-23T03:38:39.338Z,977.34
2019-01-23T03:39:39.308Z,977.36
2019-01-23T03:40:39.279Z,977.42
2019-01-23T03:41:39.254Z,977.43
2019-01-23T03:42:39.226Z,977.38
2019-01-23T03:43:39.199Z,977.40
2019-01-23T03:44:39.174Z,977.36
2019-01-23T03:45:39.156Z,977.36
2019-01-23T03:46:39.123Z,977.38
2019-01-23T03:47:39.107Z,977.42
2019-01-23T03:48:39.070Z,977.41
2019-01-23T03:49:39.042Z,977.37
2019-01-23T03:50:39.016Z,977.40
2019-01-23T03:51:38.996Z,977.36
2019-01-23T03:52:38.965Z,977.33
2019-01-23T03:53:38.939Z,977.34
2019-01-23T03:54:38.914Z,977.30
2019-01-23T03:55:38.885Z,977.31
2019-01-23T03:56:38.866Z,977.34
2019-01-23T03:57:38.833Z,977.26
2019-01-23T03:58:38.815Z,977.28
2019-01-23T03:59:38.788Z,977.30
2019-01-23T04:00:38.759Z,977.31
2019-01-23T04:01:38.729Z,977.30
2019-01-23T04:02:38.705Z,977.28
2019-01-23T04:03:38.676Z,977.25
2019-01-23T04:04:38.657Z,977.27
2019-01-23T04:05:38.628Z,977.27
2019-01-23T04:06:38.596Z,977.26
2019-01-23T04:07:38.577Z,977.24
2019-01-23T04:08:38.545Z,977.26
2019-01-23T04:09:38.527Z,977.24
2019-01-23T04:10:38.499Z,977.23
2019-01-23T04:11:38.474Z,977.20
2019-01-23T04:12:38.447Z,977.20
2019-01-23T04:13:38.413Z,977.22
2019-01-23T04:14:38.387Z,977.18
2019-01-23T04:15:38.361Z,977.18
2019-01-23T04:16:38.334Z,977.12
2019-01-23T04:17:38.308Z,977.10
2019-01-23T04:18:38.279Z,977.12
2019-01-23T04:19:38.260Z,977.10
2019-01-23T04:20:38.227Z,977.11
2019-01-23T04:21:38.211Z,977.07
2019-01-23T04:22:38.177Z,977.06
2019-01-23T04:23:38.152Z,977.07
2019-01-23T04:24:38.127Z,977.08
2019-01-23T04:25:38.109Z,977.09
2019-01-23T04:26:38.071Z,977.10
2019-01-23T04:27:38.042Z,977.07
2019-01-23T04:28:38.024Z,977.07
2019-01-23T04:29:39.767Z,977.03
2019-01-23T04:30:37.964Z,977.03
2019-01-23T04:31:37.941Z,977.03
2019-01-23T04:32:37.911Z,977.02
2019-01-23T04:33:37.892Z,976.99
2019-01-23T04:34:37.861Z,977.00
2019-01-23T04:35:37.832Z,976.98
2019-01-23T04:36:37.810Z,976.96
2019-01-23T04:37:37.781Z,976.92
2019-01-23T04:38:37.755Z,976.93
2019-01-23T04:39:37.773Z,976.94
2019-01-23T04:40:37.704Z,976.95
2019-01-23T04:41:37.674Z,976.94
2019-01-23T04:42:37.649Z,976.89
2019-01-23T04:43:37.622Z,976.93
2019-01-23T04:44:37.600Z,976.92
2019-01-23T04:45:37.574Z,976.89
2019-01-23T04:46:37.543Z,976.89
2019-01-23T04:47:37.519Z,976.92
2019-01-23T04:48:37.497Z,976.95
2019-01-23T04:49:37.463Z,976.89
2019-01-23T04:50:37.437Z,976.90
2019-01-23T04:51:37.416Z,976.86
2019-01-23T04:52:37.386Z,976.88
2019-01-23T04:53:37.357Z,976.88
2019-01-23T04:54:37.332Z,976.87
2019-01-23T04:55:37.320Z,976.86
2019-01-23T04:56:37.281Z,976.83
2019-01-23T04:57:37.255Z,976.84
2019-01-23T04:58:37.225Z,976.84
2019-01-23T04:59:37.207Z,976.80
2019-01-23T05:00:37.174Z,976.81
2019-01-23T05:01:37.148Z,976.82
2019-01-23T05:02:37.121Z,976.83
2019-01-23T05:03:37.100Z,976.79
2019-01-23T05:04:37.070Z,976.76
2019-01-23T05:05:37.049Z,976.78
2019-01-23T05:06:37.016Z,976.79
2019-01-23T05:07:36.990Z,976.80
2019-01-23T05:08:36.988Z,976.78
2019-01-23T05:09:36.949Z,976.75
2019-01-23T05:10:36.913Z,976.78
2019-01-23T05:11:36.891Z,976.77
2019-01-23T05:12:36.864Z,976.79
2019-01-23T05:13:36.836Z,976.75
2019-01-23T05:14:36.814Z,976.72
2019-01-23T05:15:36.787Z,976.73
2019-01-23T05:16:36.752Z,976.75
2019-01-23T05:17:36.729Z,976.70
2019-01-23T05:18:36.707Z,976.68
2019-01-23T05:19:36.679Z,976.64
2019-01-23T05:20:36.651Z,976.63
2019-01-23T05:21:36.626Z,976.61
2019-01-23T05:22:36.599Z,976.64
2019-01-23T05:23:36.577Z,976.62
2019-01-23T05:24:36.555Z,976.62
2019-01-23T05:25:36.518Z,976.66
2019-01-23T05:26:36.492Z,976.60
2019-01-23T05:27:36.476Z,976.61
2019-01-23T05:28:36.439Z,976.64
2019-01-23T05:29:36.411Z,976.59
2019-01-23T05:30:36.386Z,976.62
2019-01-23T05:31:36.365Z,976.61
2019-01-23T05:32:36.345Z,976.60
2019-01-23T05:33:36.309Z,976.64
2019-01-23T05:34:36.287Z,976.62
2019-01-23T05:35:36.268Z,976.61
2019-01-23T05:36:36.231Z,976.64
2019-01-23T05:37:36.202Z,976.61
2019-01-23T05:38:36.175Z,976.61
2019-01-23T05:39:36.146Z,976.57
2019-01-23T05:40:36.125Z,976.56
2019-01-23T05:41:36.092Z,976.57
2019-01-23T05:42:36.065Z,976.56
2019-01-23T05:43:36.050Z,976.51
2019-01-23T05:44:36.023Z,976.51
2019-01-23T05:45:35.988Z,976.49
2019-01-23T05:46:35.969Z,976.49
2019-01-23T05:47:35.937Z,976.51
2019-01-23T05:48:35.917Z,976.49
2019-01-23T05:49:35.886Z,976.50
2019-01-23T05:50:35.857Z,976.50
2019-01-23T05:51:35.867Z,976.47
2019-01-23T05:52:35.814Z,976.48
2019-01-23T05:53:35.787Z,976.45
2019-01-23T05:54:35.759Z,976.45
2019-01-23T05:55:35.726Z,976.48
2019-01-23T05:56:35.703Z,976.48
2019-01-23T05:57:35.676Z,976.46
2019-01-23T05:58:35.653Z,976.47
2019-01-23T05:59:35.621Z,976.44
2019-01-23T06:00:35.593Z,976.46
2019-01-23T06:01:35.576Z,976.45
2019-01-23T06:02:35.541Z,976.43
2019-01-23T06:03:35.523Z,976.43
2019-01-23T06:04:35.488Z,976.44
2019-01-23T06:05:35.468Z,976.43
2019-01-23T06:06:35.436Z,976.46
2019-01-23T06:07:35.408Z,976.43
2019-01-23T06:08:35.388Z,976.40
2019-01-23T06:09:35.362Z,976.42
2019-01-23T06:10:35.336Z,976.46
2019-01-23T06:11:35.305Z,976.46
2019-01-23T06:12:35.278Z,976.49
2019-01-23T06:13:35.262Z,976.45
2019-01-23T06:14:35.230Z,976.49
2019-01-23T06:15:35.200Z,976.46
2019-01-23T06:16:35.178Z,976.47
2019-01-23T06:17:35.143Z,976.46
2019-01-23T06:18:35.120Z,976.49
2019-01-23T06:19:35.092Z,976.46
2019-01-23T06:20:35.067Z,976.44
2019-01-23T06:21:35.041Z,976.45
2019-01-23T06:22:35.012Z,976.48
2019-01-23T06:23:34.987Z,976.45
2019-01-23T06:24:34.981Z,976.47
2019-01-23T06:25:34.929Z,976.44
2019-01-23T06:26:34.911Z,976.46
2019-01-23T06:27:34.884Z,976.43
2019-01-23T06:28:34.855Z,976.46
2019-01-23T06:29:34.829Z,976.46
2019-01-23T06:30:34.806Z,976.45
2019-01-23T06:31:34.796Z,976.47
2019-01-23T06:32:34.750Z,976.48
2019-01-23T06:33:34.727Z,976.50
2019-01-23T06:34:34.695Z,976.48
2019-01-23T06:35:34.670Z,976.49
2019-01-23T06:36:34.645Z,976.50
2019-01-23T06:37:34.617Z,976.52
2019-01-23T06:38:34.591Z,976.48
2019-01-23T06:39:34.565Z,976.51
2019-01-23T06:40:34.575Z,976.49
2019-01-23T06:41:34.521Z,976.47
2019-01-23T06:42:34.484Z,976.51
2019-01-23T06:43:34.462Z,976.49
2019-01-23T06:44:34.434Z,976.49
2019-01-23T06:45:34.414Z,976.51
2019-01-23T06:46:34.379Z,976.52
2019-01-23T06:47:34.354Z,976.50
2019-01-23T06:48:34.327Z,976.49
2019-01-23T06:49:34.305Z,976.47
2019-01-23T06:50:34.278Z,976.48
2019-01-23T06:51:34.256Z,976.46
2019-01-23T06:52:34.224Z,976.42
2019-01-23T06:53:34.197Z,976.45
2019-01-23T06:54:34.176Z,976.44
2019-01-23T06:55:34.144Z,976.50
2019-01-23T06:56:34.124Z,976.45
2019-01-23T06:57:34.090Z,976.49
2019-01-23T06:58:34.070Z,976.47
2019-01-23T06:59:34.046Z,976.47
2019-01-23T07:00:34.006Z,976.47
2019-01-23T07:01:33.981Z,976.46
2019-01-23T07:02:33.965Z,976.45
2019-01-23T07:03:33.933Z,976.47
2019-01-23T07:04:33.943Z,976.47
2019-01-23T07:05:33.877Z,976.46
2019-01-23T07:06:33.852Z,976.50
2019-01-23T07:07:33.843Z,976.49
2019-01-23T07:08:33.801Z,976.44
2019-01-23T07:09:33.773Z,976.49
2019-01-23T07:10:33.754Z,976.47
2019-01-23T07:11:33.728Z,976.47
2019-01-23T07:12:33.703Z,976.47
2019-01-23T07:13:33.668Z,976.51
2019-01-23T07:14:33.643Z,976.46
2019-01-23T07:15:33.617Z,976.47
2019-01-23T07:16:33.591Z,976.45
2019-01-23T07:17:33.569Z,976.47
2019-01-23T07:18:33.544Z,976.47
2019-01-23T07:19:33.521Z,976.48
2019-01-23T07:20:33.483Z,976.44
2019-01-23T07:21:33.461Z,976.45
2019-01-23T07:22:33.432Z,976.41
2019-01-23T07:23:33.407Z,976.43
2019-01-23T07:24:33.384Z,976.45
2019-01-23T07:25:33.361Z,976.39
2019-01-23T07:26:33.333Z,976.40
2019-01-23T07:27:33.301Z,976.42
2019-01-23T07:28:33.273Z,976.36
2019-01-23T07:29:33.250Z,976.42
2019-01-23T07:30:33.222Z,976.41
2019-01-23T07:31:33.202Z,976.41
2019-01-23T07:32:33.173Z,976.37
2019-01-23T07:33:33.141Z,976.39
2019-01-23T07:34:33.122Z,976.35
2019-01-23T07:35:33.087Z,976.39
2019-01-23T07:36:33.068Z,976.37
2019-01-23T07:37:33.043Z,976.36
2019-01-23T07:38:33.011Z,976.34
2019-01-23T07:39:32.985Z,976.35
2019-01-23T07:40:32.965Z,976.35
2019-01-23T07:41:32.934Z,976.33
2019-01-23T07:42:32.906Z,976.33
2019-01-23T07:43:32.882Z,976.30
2019-01-23T07:44:32.854Z,976.31
2019-01-23T07:45:32.820Z,976.28
2019-01-23T07:46:32.806Z,976.29
2019-01-23T07:47:32.769Z,976.29
2019-01-23T07:48:32.753Z,976.29
2019-01-23T07:49:32.725Z,976.30
2019-01-23T07:50:32.692Z,976.31
2019-01-23T07:51:32.682Z,976.31
2019-01-23T07:52:32.642Z,976.30
2019-01-23T07:53:32.616Z,976.27
2019-01-23T07:54:32.587Z,976.22
2019-01-23T07:55:32.568Z,976.27
2019-01-23T07:56:32.573Z,976.30
2019-01-23T07:57:32.518Z,976.29
2019-01-23T07:58:32.517Z,976.29
2019-01-23T07:59:32.460Z,976.27
2019-01-23T08:00:32.440Z,976.25
2019-01-23T08:01:32.404Z,976.30
2019-01-23T08:02:32.384Z,976.26
2019-01-23T08:03:32.353Z,976.27
2019-01-23T08:04:32.327Z,976.25
2019-01-23T08:05:32.304Z,976.25
2019-01-23T08:06:32.275Z,976.27
2019-01-23T08:07:32.248Z,976.28
2019-01-23T08:08:32.231Z,976.26
2019-01-23T08:09:32.194Z,976.27
2019-01-23T08:10:32.168Z,976.26
2019-01-23T08:11:32.143Z,976.24
2019-01-23T08:12:32.117Z,976.21
2019-01-23T08:13:32.092Z,976.22
2019-01-23T08:14:32.073Z,976.17
2019-01-23T08:15:32.046Z,976.16
2019-01-23T08:16:32.017Z,976.17
2019-01-23T08:17:32.805Z,976.13
2019-01-23T08:18:31.967Z,976.13
2019-01-23T08:19:31.935Z,976.19
2019-01-23T08:20:31.915Z,976.18
2019-01-23T08:21:31.883Z,976.16
2019-01-23T08:22:31.896Z,976.18
2019-01-23T08:23:31.831Z,976.13
2019-01-23T08:24:31.802Z,976.19
2019-01-23T08:25:31.780Z,976.21
2019-01-23T08:26:31.751Z,976.19
2019-01-23T08:27:31.729Z,976.22
2019-01-23T08:28:31.710Z,976.19
2019-01-23T08:29:31.680Z,976.15
2019-01-23T08:30:38.424Z,976.20
2019-01-23T08:31:31.619Z,976.20
2019-01-23T08:32:31.599Z,976.21
2019-01-23T08:33:31.572Z,976.22
2019-01-23T08:34:31.545Z,976.23
2019-01-23T08:35:31.517Z,976.23
2019-01-23T08:36:31.494Z,976.27
2019-01-23T08:37:31.466Z,976.26
2019-01-23T08:38:31.446Z,976.26
2019-01-23T08:39:31.420Z,976.29
2019-01-23T08:40:31.390Z,976.28
2019-01-23T08:41:31.360Z,976.26
2019-01-23T08:42:31.338Z,976.27
2019-01-23T08:43:31.316Z,976.24
2019-01-23T08:44:31.287Z,976.25
2019-01-23T08:45:31.259Z,976.19
2019-01-23T08:46:31.231Z,976.22
2019-01-23T08:47:31.211Z,976.21
2019-01-23T08:48:31.179Z,976.19
2019-01-23T08:49:31.154Z,976.20
2019-01-23T08:50:31.174Z,976.18
2019-01-23T08:51:31.108Z,976.19
2019-01-23T08:52:31.078Z,976.19
2019-01-23T08:53:31.052Z,976.23
2019-01-23T08:54:31.031Z,976.27
2019-01-23T08:55:31.004Z,976.22
2019-01-23T08:56:30.989Z,976.24
2019-01-23T08:57:30.953Z,976.25
2019-01-23T08:58:30.924Z,976.25
2019-01-23T08:59:30.900Z,976.25
2019-01-23T09:00:30.875Z,976.25
2019-01-23T09:01:30.851Z,976.24
2019-01-23T09:02:30.829Z,976.27
2019-01-23T09:03:30.800Z,976.26
2019-01-23T09:04:30.777Z,976.29
2019-01-23T09:05:30.742Z,976.30
2019-01-23T09:06:30.728Z,976.32
2019-01-23T09:07:30.695Z,976.32
2019-01-23T09:08:37.459Z,976.33
2019-01-23T09:09:30.640Z,976.32
2019-01-23T09:10:30.627Z,976.33
2019-01-23T09:11:30.595Z,976.31
2019-01-23T09:12:30.570Z,976.28
2019-01-23T09:13:30.541Z,976.34
2019-01-23T09:14:30.512Z,976.33
2019-01-23T09:15:30.495Z,976.37
2019-01-23T09:16:30.462Z,976.40
2019-01-23T09:17:30.436Z,976.34
2019-01-23T09:18:30.414Z,976.36
2019-01-23T09:19:30.392Z,976.33
2019-01-23T09:20:30.363Z,976.35
2019-01-23T09:21:30.337Z,976.31
2019-01-23T09:22:30.305Z,976.29
2019-01-23T09:23:30.282Z,976.30
2019-01-23T09:24:30.255Z,976.32
2019-01-23T09:25:30.236Z,976.25
2019-01-23T09:26:30.210Z,976.33
2019-01-23T09:27:30.178Z,976.31
2019-01-23T09:28:30.156Z,976.31
2019-01-23T09:29:30.124Z,976.36
2019-01-23T09:30:30.107Z,976.41
2019-01-23T09:31:30.081Z,976.41
2019-01-23T09:32:30.053Z,976.41
2019-01-23T09:33:30.026Z,976.39
2019-01-23T09:34:30.004Z,976.42
2019-01-23T09:35:29.978Z,976.44
2019-01-23T09:36:29.953Z,976.43
2019-01-23T09:37:29.925Z,976.43
2019-01-23T09:38:29.908Z,976.38
2019-01-23T09:39:29.874Z,976.39
2019-01-23T09:40:29.855Z,976.35
2019-01-23T09:41:29.830Z,976.37
2019-01-23T09:42:29.797Z,976.37
2019-01-23T09:43:29.772Z,976.40
2019-01-23T09:44:29.756Z,976.36
2019-01-23T09:45:29.725Z,976.34
2019-01-23T09:46:29.704Z,976.35
2019-01-23T09:47:29.677Z,976.35
2019-01-23T09:48:29.646Z,976.33
2019-01-23T09:49:29.620Z,976.32
2019-01-23T09:50:29.605Z,976.38
2019-01-23T09:51:29.573Z,976.32
2019-01-23T09:52:29.553Z,976.31
2019-01-23T09:53:29.522Z,976.32
2019-01-23T09:54:29.493Z,976.38
2019-01-23T09:55:29.473Z,976.35
2019-01-23T09:56:29.454Z,976.33
2019-01-23T09:57:29.428Z,976.38
2019-01-23T09:58:29.396Z,976.37
2019-01-23T09:59:29.370Z,976.40
2019-01-23T10:00:31.782Z,976.38
2019-01-23T10:01:29.329Z,976.40
2019-01-23T10:02:29.295Z,976.42
2019-01-23T10:03:29.270Z,976.44
2019-01-23T10:04:29.469Z,976.39
2019-01-23T10:05:29.221Z,976.37
2019-01-23T10:06:29.194Z,976.39
2019-01-23T10:07:29.168Z,976.37
2019-01-23T10:08:29.150Z,976.37
2019-01-23T10:09:29.117Z,976.44
2019-01-23T10:10:29.095Z,976.42
2019-01-23T10:11:29.066Z,976.44
2019-01-23T10:12:29.043Z,976.43
2019-01-23T10:13:29.024Z,976.42
2019-01-23T10:14:28.998Z,976.43
2019-01-23T10:15:28.973Z,976.42
2019-01-23T10:16:28.944Z,976.46
2019-01-23T10:17:28.925Z,976.43
2019-01-23T10:18:28.893Z,976.43
2019-01-23T10:19:28.876Z,976.39
2019-01-23T10:20:28.843Z,976.41
2019-01-23T10:21:28.818Z,976.34
2019-01-23T10:22:28.792Z,976.38
2019-01-23T10:23:28.769Z,976.39
2019-01-23T10:24:28.751Z,976.41
2019-01-23T10:25:28.722Z,976.40
2019-01-23T10:26:28.699Z,976.41
2019-01-23T10:27:28.675Z,976.40
2019-01-23T10:28:28.646Z,976.42
2019-01-23T10:29:28.624Z,976.39
2019-01-23T10:30:28.611Z,976.37
2019-01-23T10:31:28.569Z,976.37
2019-01-23T10:32:28.543Z,976.40
2019-01-23T10:33:28.518Z,976.39
2019-01-23T10:34:28.501Z,976.35
2019-01-23T10:35:28.467Z,976.35
2019-01-23T10:36:28.441Z,976.37
2019-01-23T10:37:28.416Z,976.36
2019-01-23T10:38:28.400Z,976.32
2019-01-23T10:39:28.374Z,976.33
2019-01-23T10:40:28.349Z,976.37
2019-01-23T10:41:28.323Z,976.33
2019-01-23T10:42:28.297Z,976.30
2019-01-23T10:43:28.275Z,976.30
2019-01-23T10:44:28.246Z,976.30
2019-01-23T10:45:28.218Z,976.27
2019-01-23T10:46:28.192Z,976.28
2019-01-23T10:47:28.167Z,976.28
2019-01-23T10:48:28.147Z,976.23
2019-01-23T10:49:28.119Z,976.26
2019-01-23T10:50:28.093Z,976.26
2019-01-23T10:51:28.075Z,976.26
2019-01-23T10:52:28.049Z,976.27
2019-01-23T10:53:28.038Z,976.26
2019-01-23T10:54:27.992Z,976.25
2019-01-23T10:55:27.969Z,976.30
2019-01-23T10:56:27.950Z,976.26
2019-01-23T10:57:27.918Z,976.29
2019-01-23T10:58:27.893Z,976.24
2019-01-23T10:59:27.868Z,976.20
2019-01-23T11:00:27.849Z,976.23
2019-01-23T11:01:27.821Z,976.22
2019-01-23T11:02:27.929Z,976.24
2019-01-23T11:03:27.769Z,976.20
2019-01-23T11:04:27.750Z,976.21
2019-01-23T11:05:27.721Z,976.22
2019-01-23T11:06:27.691Z,976.21
2019-01-23T11:07:27.680Z,976.23
2019-01-23T11:08:27.643Z,976.21
2019-01-23T11:09:27.702Z,976.22
2019-01-23T11:10:27.605Z,976.23
2019-01-23T11:11:27.570Z,976.22
2019-01-23T11:12:27.556Z,976.25
2019-01-23T11:13:27.521Z,976.25
2019-01-23T11:14:27.499Z,976.29
2019-01-23T11:15:27.474Z,976.22
2019-01-23T11:16:27.446Z,976.25
2019-01-23T11:17:27.443Z,976.23
2019-01-23T11:18:27.401Z,976.17
2019-01-23T11:19:27.369Z,976.23
2019-01-23T11:20:27.354Z,976.21
2019-01-23T11:21:27.322Z,976.20
2019-01-23T11:22:27.297Z,976.21
2019-01-23T11:23:27.269Z,976.19
2019-01-23T11:24:27.243Z,976.16
2019-01-23T11:25:27.224Z,976.15
2019-01-23T11:26:27.196Z,976.18
2019-01-23T11:27:27.176Z,976.17
2019-01-23T11:28:27.148Z,976.21
2019-01-23T11:29:27.119Z,976.22
2019-01-23T11:30:27.103Z,976.18
2019-01-23T11:31:27.071Z,976.18
2019-01-23T11:32:27.045Z,976.21
2019-01-23T11:33:27.022Z,976.22
2019-01-23T11:34:26.993Z,976.21
2019-01-23T11:35:26.977Z,976.22
2019-01-23T11:36:26.945Z,976.21
2019-01-23T11:37:26.926Z,976.20
2019-01-23T11:38:26.894Z,976.22
2019-01-23T11:39:26.868Z,976.21
2019-01-23T11:40:26.842Z,976.24
2019-01-23T11:41:26.817Z,976.25
2019-01-23T11:42:26.791Z,976.24
2019-01-23T11:43:26.773Z,976.22
2019-01-23T11:44:26.744Z,976.19
2019-01-23T11:45:26.718Z,976.17
2019-01-23T11:46:26.692Z,976.20
2019-01-23T11:47:26.666Z,976.21
2019-01-23T11:48:26.663Z,976.19
2019-01-23T11:49:26.623Z,976.17
2019-01-23T11:50:26.600Z,976.18
2019-01-23T11:51:26.601Z,976.16
2019-01-23T11:52:26.549Z,976.18
2019-01-23T11:53:26.519Z,976.17
2019-01-23T11:54:26.494Z,976.19
2019-01-23T11:55:26.473Z,976.17
2019-01-23T11:56:26.447Z,976.19
2019-01-23T11:57:26.427Z,976.16
2019-01-23T11:58:26.399Z,976.18
2019-01-23T11:59:26.365Z,976.16
2019-01-23T12:00:26.357Z,976.16
2019-01-23T12:01:27.659Z,976.18
2019-01-23T12:02:30.772Z,976.19
2019-01-23T12:03:26.265Z,976.17
2019-01-23T12:04:26.247Z,976.22
2019-01-23T12:05:26.215Z,976.22
2019-01-23T12:06:26.188Z,976.17
2019-01-23T12:07:26.163Z,976.21
2019-01-23T12:08:26.144Z,976.20
2019-01-23T12:09:26.118Z,976.20
2019-01-23T12:10:26.092Z,976.19
2019-01-23T12:11:26.064Z,976.19
2019-01-23T12:12:26.039Z,976.21
2019-01-23T12:13:26.014Z,976.17
2019-01-23T12:14:25.988Z,976.18
2019-01-23T12:15:25.971Z,976.17
2019-01-23T12:16:25.958Z,976.19
2019-01-23T12:17:25.911Z,976.15
2019-01-23T12:18:25.885Z,976.17
2019-01-23T12:19:25.857Z,976.15
2019-01-23T12:20:25.841Z,976.16
2019-01-23T12:21:25.815Z,976.18
2019-01-23T12:22:25.789Z,976.18
2019-01-23T12:23:25.765Z,976.20
2019-01-23T12:24:25.732Z,976.21
2019-01-23T12:25:25.713Z,976.21
2019-01-23T12:26:25.687Z,976.15
2019-01-23T12:27:25.657Z,976.17
2019-01-23T12:28:25.641Z,976.18